createdAt,value
2023-05-05T00:00:02.122Z,13.62
2023-05-05T00:02:29.086Z,13.53
2023-05-05T00:04:56.121Z,13.62
2023-05-05T00:07:23.166Z,13.61
2023-05-05T00:09:49.965Z,13.60
2023-05-05T00:12:16.992Z,13.57
2023-05-05T00:14:44.004Z,13.57
2023-05-05T00:17:11.043Z,13.50
2023-05-05T00:19:41.508Z,13.49
2023-05-05T00:22:08.552Z,13.52
2023-05-05T00:24:36.022Z,13.56
2023-05-05T00:27:03.563Z,13.56
2023-05-05T00:29:30.681Z,13.53
2023-05-05T00:31:57.543Z,13.51
2023-05-05T00:34:24.571Z,13.46
2023-05-05T00:36:51.472Z,13.51
2023-05-05T00:39:18.287Z,13.51
2023-05-05T00:41:45.343Z,13.50
2023-05-05T00:44:12.475Z,13.45
2023-05-05T00:46:41.714Z,13.43
2023-05-05T00:49:10.117Z,13.45
2023-05-05T00:51:37.217Z,13.38
2023-05-05T00:54:07.413Z,13.37
2023-05-05T00:56:34.352Z,13.47
2023-05-05T00:59:02.763Z,13.46
2023-05-05T01:01:32.947Z,13.47
2023-05-05T01:04:00.023Z,13.39
2023-05-05T01:06:36.765Z,13.42
2023-05-05T01:09:22.274Z,13.44
2023-05-05T01:12:34.864Z,13.41
2023-05-05T01:15:04.487Z,13.39
2023-05-05T01:17:42.730Z,13.36
2023-05-05T01:20:33.523Z,13.37
2023-05-05T01:23:07.330Z,13.38
2023-05-05T01:25:40.076Z,13.38
2023-05-05T01:28:20.761Z,13.32
2023-05-05T01:31:09.542Z,13.33
2023-05-05T01:33:46.490Z,13.35
2023-05-05T01:36:22.929Z,13.36
2023-05-05T01:38:57.709Z,13.31
2023-05-05T01:41:33.182Z,13.30
2023-05-05T01:44:06.015Z,13.27
2023-05-05T01:46:35.498Z,13.35
2023-05-05T01:49:03.006Z,13.32
2023-05-05T01:51:34.363Z,13.25
2023-05-05T01:54:08.170Z,13.31
2023-05-05T01:56:38.751Z,13.32
2023-05-05T01:59:07.295Z,13.27
2023-05-05T02:01:39.425Z,13.34
2023-05-05T02:04:09.907Z,13.30
2023-05-05T02:06:40.272Z,13.29
2023-05-05T02:09:12.409Z,13.30
2023-05-05T02:11:40.636Z,13.36
2023-05-05T02:14:09.306Z,13.36
2023-05-05T02:16:38.126Z,13.32
2023-05-05T02:19:05.963Z,13.31
2023-05-05T02:21:34.320Z,13.26
2023-05-05T02:24:02.617Z,13.26
2023-05-05T02:26:34.078Z,13.26
2023-05-05T02:29:08.176Z,13.23
2023-05-05T02:31:42.343Z,13.13
2023-05-05T02:34:11.377Z,13.14
2023-05-05T02:36:41.225Z,13.20
2023-05-05T02:39:21.688Z,13.20
2023-05-05T02:41:51.354Z,13.19
2023-05-05T02:44:27.560Z,13.20
2023-05-05T02:46:55.115Z,13.22
2023-05-05T02:49:23.217Z,13.19
2023-05-05T02:51:51.219Z,13.23
2023-05-05T02:54:24.272Z,13.21
2023-05-05T02:56:56.832Z,13.13
2023-05-05T02:59:30.201Z,13.20
2023-05-05T03:02:39.436Z,13.24
2023-05-05T03:05:13.480Z,13.19
2023-05-05T03:08:16.257Z,13.14
2023-05-05T03:10:51.721Z,13.20
2023-05-05T03:13:23.234Z,13.19
2023-05-05T03:15:53.180Z,13.19
2023-05-05T03:18:25.422Z,13.20
2023-05-05T03:21:08.831Z,13.13
2023-05-05T03:23:39.088Z,13.18
2023-05-05T03:26:11.595Z,13.14
2023-05-05T03:28:42.197Z,13.17
2023-05-05T03:31:18.470Z,13.18
2023-05-05T03:33:50.398Z,13.22
2023-05-05T03:36:20.267Z,13.14
2023-05-05T03:38:47.594Z,13.10
2023-05-05T03:41:15.100Z,13.10
2023-05-05T03:43:42.248Z,13.09
2023-05-05T03:46:10.368Z,13.19
2023-05-05T03:48:37.920Z,13.18
2023-05-05T03:51:04.901Z,13.21
2023-05-05T03:53:34.037Z,13.17
2023-05-05T03:56:04.420Z,13.26
2023-05-05T03:58:31.659Z,13.21
2023-05-05T04:00:58.585Z,13.18
2023-05-05T04:03:26.086Z,13.25
2023-05-05T04:05:53.464Z,13.25
2023-05-05T04:08:21.425Z,13.29
2023-05-05T04:10:48.319Z,13.29
2023-05-05T04:13:15.765Z,13.30
2023-05-05T04:15:46.833Z,13.32
2023-05-05T04:18:15.019Z,13.40
2023-05-05T04:20:42.198Z,13.45
2023-05-05T04:23:10.647Z,13.43
2023-05-05T04:25:38.136Z,13.44
2023-05-05T04:28:05.731Z,13.47
2023-05-05T04:30:33.639Z,13.49
2023-05-05T04:33:01.012Z,13.51
2023-05-05T04:35:28.214Z,13.51
2023-05-05T04:37:55.190Z,13.52
2023-05-05T04:40:22.952Z,13.57
2023-05-05T04:42:51.372Z,13.55
2023-05-05T04:45:18.183Z,13.40
2023-05-05T04:47:45.449Z,13.59
2023-05-05T04:50:12.576Z,13.59
2023-05-05T04:52:52.772Z,13.50
2023-05-05T04:55:20.390Z,13.53
2023-05-05T05:00:29.134Z,13.56
2023-05-05T05:02:56.199Z,13.67
2023-05-05T05:05:23.408Z,13.61
2023-05-05T05:07:50.756Z,13.69
2023-05-05T05:10:18.280Z,13.70
2023-05-05T05:12:48.214Z,13.76
2023-05-05T05:15:15.474Z,13.87
2023-05-05T05:17:42.524Z,13.93
2023-05-05T05:20:10.094Z,13.98
2023-05-05T05:22:38.839Z,14.13
2023-05-05T05:25:10.003Z,14.18
2023-05-05T05:27:37.348Z,14.21
2023-05-05T05:30:04.820Z,14.33
2023-05-05T05:32:33.414Z,14.34
2023-05-05T05:35:01.295Z,14.45
2023-05-05T05:37:31.583Z,14.63
2023-05-05T05:39:59.367Z,14.81
2023-05-05T05:42:28.471Z,14.87
2023-05-05T05:44:55.741Z,14.84
2023-05-05T05:47:23.827Z,14.87
2023-05-05T05:49:51.100Z,14.92
2023-05-05T05:52:19.676Z,14.85
2023-05-05T05:54:46.666Z,14.68
2023-05-05T05:57:13.525Z,14.81
2023-05-05T05:59:40.500Z,14.77
2023-05-05T06:02:08.033Z,14.86
2023-05-05T06:04:35.446Z,14.91
2023-05-05T06:07:02.452Z,14.92
2023-05-05T06:09:29.669Z,14.94
2023-05-05T06:11:56.632Z,14.92
2023-05-05T06:14:23.576Z,14.91
2023-05-05T06:16:52.297Z,14.70
2023-05-05T06:19:21.736Z,14.79
2023-05-05T06:21:49.315Z,14.77
2023-05-05T06:24:16.208Z,14.81
2023-05-05T06:26:43.485Z,14.89
2023-05-05T06:29:12.196Z,14.85
2023-05-05T06:31:39.471Z,14.78
2023-05-05T06:34:06.341Z,14.76
2023-05-05T06:36:33.476Z,14.76
2023-05-05T06:39:00.567Z,14.73
2023-05-05T06:41:27.690Z,14.69
2023-05-05T06:43:54.471Z,14.64
2023-05-05T06:46:21.554Z,14.68
2023-05-05T06:48:48.573Z,14.65
2023-05-05T06:51:16.334Z,14.68
2023-05-05T06:53:43.123Z,14.78
2023-05-05T06:56:11.456Z,14.65
2023-05-05T06:58:38.495Z,14.70
2023-05-05T07:01:05.883Z,14.70
2023-05-05T07:03:32.998Z,14.70
2023-05-05T07:05:59.960Z,14.73
2023-05-05T07:08:26.867Z,14.69
2023-05-05T07:10:53.900Z,14.66
2023-05-05T07:13:21.038Z,14.60
2023-05-05T07:15:48.047Z,14.70
2023-05-05T07:18:16.492Z,14.64
2023-05-05T07:20:46.590Z,14.60
2023-05-05T07:23:13.634Z,14.58
2023-05-05T07:25:40.784Z,14.58
2023-05-05T07:28:07.947Z,14.64
2023-05-05T07:30:34.941Z,14.72
2023-05-05T07:33:02.031Z,14.77
2023-05-05T07:35:29.009Z,14.72
2023-05-05T07:37:56.018Z,14.71
2023-05-05T07:40:22.971Z,14.43
2023-05-05T07:42:50.150Z,14.68
2023-05-05T07:45:17.007Z,14.58
2023-05-05T07:47:44.381Z,14.73
2023-05-05T07:50:11.694Z,14.89
2023-05-05T07:52:48.446Z,15.09
2023-05-05T07:55:20.961Z,15.43
2023-05-05T07:57:48.305Z,15.65
2023-05-05T08:00:15.680Z,15.79
2023-05-05T08:02:44.229Z,15.76
2023-05-05T08:05:12.086Z,15.63
2023-05-05T08:07:41.613Z,15.77
2023-05-05T08:10:11.461Z,16.03
2023-05-05T08:12:39.238Z,16.12
2023-05-05T08:15:07.070Z,16.06
2023-05-05T08:17:55.883Z,16.27
2023-05-05T08:20:23.068Z,16.34
2023-05-05T08:22:50.363Z,16.53
2023-05-05T08:25:17.226Z,16.62
2023-05-05T08:27:45.134Z,16.60
2023-05-05T08:30:12.847Z,16.54
2023-05-05T08:32:39.771Z,16.40
2023-05-05T08:35:07.597Z,16.21
2023-05-05T08:37:35.062Z,16.15
2023-05-05T08:40:02.015Z,15.99
2023-05-05T08:42:38.049Z,15.75
2023-05-05T08:45:10.646Z,15.67
2023-05-05T08:47:39.499Z,15.64
2023-05-05T08:50:09.934Z,15.44
2023-05-05T08:52:42.104Z,15.51
2023-05-05T08:55:26.610Z,15.57
2023-05-05T08:57:57.559Z,15.71
2023-05-05T09:00:24.660Z,15.96
2023-05-05T09:02:52.709Z,16.08
2023-05-05T09:05:19.588Z,16.32
2023-05-05T09:07:47.603Z,16.60
2023-05-05T09:10:14.745Z,16.92
2023-05-05T09:12:42.192Z,17.14
2023-05-05T09:15:11.915Z,17.28
2023-05-05T09:17:39.744Z,17.51
2023-05-05T09:20:14.771Z,17.59
2023-05-05T09:22:43.615Z,17.81
2023-05-05T09:25:15.685Z,17.90
2023-05-05T09:27:48.174Z,17.88
2023-05-05T09:30:24.380Z,17.83
2023-05-05T09:32:54.447Z,17.76
2023-05-05T09:35:23.349Z,17.80
2023-05-05T09:37:50.851Z,17.67
2023-05-05T09:40:22.303Z,17.71
2023-05-05T09:43:02.872Z,17.68
2023-05-05T09:45:32.049Z,17.71
2023-05-05T09:48:00.533Z,17.80
2023-05-05T09:50:30.957Z,17.72
2023-05-05T09:53:00.900Z,17.80
2023-05-05T09:55:33.834Z,17.90
2023-05-05T09:58:24.381Z,17.50
2023-05-05T10:00:52.007Z,17.44
2023-05-05T10:03:19.306Z,17.33
2023-05-05T10:05:52.134Z,17.50
2023-05-05T10:08:21.149Z,16.97
2023-05-05T10:10:52.359Z,17.07
2023-05-05T10:13:21.190Z,16.66
2023-05-05T10:15:53.963Z,17.02
2023-05-05T10:18:25.942Z,17.04
2023-05-05T10:20:58.628Z,17.20
2023-05-05T10:23:39.831Z,17.05
2023-05-05T10:26:08.180Z,17.08
2023-05-05T10:28:43.528Z,17.23
2023-05-05T10:31:37.541Z,17.43
2023-05-05T10:34:09.893Z,17.46
2023-05-05T10:36:39.280Z,17.52
2023-05-05T10:39:10.929Z,17.79
2023-05-05T10:41:39.027Z,17.87
2023-05-05T10:44:06.813Z,17.89
2023-05-05T10:46:34.105Z,17.94
2023-05-05T10:49:22.474Z,17.77
2023-05-05T10:52:14.264Z,17.74
2023-05-05T10:54:54.621Z,18.23
2023-05-05T10:57:26.305Z,18.40
2023-05-05T10:59:53.162Z,18.42
2023-05-05T11:02:28.173Z,18.66
2023-05-05T11:05:15.263Z,18.60
2023-05-05T11:07:44.050Z,18.89
2023-05-05T11:10:12.981Z,19.27
2023-05-05T11:12:52.132Z,19.52
2023-05-05T11:15:28.187Z,19.50
2023-05-05T11:17:56.446Z,19.66
2023-05-05T11:20:36.045Z,19.80
2023-05-05T11:23:03.780Z,19.83
2023-05-05T11:25:36.853Z,19.82
2023-05-05T11:28:11.394Z,20.14
2023-05-05T11:30:57.272Z,20.35
2023-05-05T11:33:32.035Z,19.85
2023-05-05T11:36:05.816Z,19.64
2023-05-05T11:38:36.254Z,19.88
2023-05-05T11:41:12.534Z,19.97
2023-05-05T11:43:41.864Z,20.12
2023-05-05T11:46:16.812Z,20.26
2023-05-05T11:48:46.714Z,20.03
2023-05-05T11:51:14.904Z,20.34
2023-05-05T11:53:43.894Z,20.52
2023-05-05T11:56:12.027Z,19.92
2023-05-05T11:58:38.998Z,19.72
2023-05-05T12:01:07.498Z,19.54
2023-05-05T12:03:36.417Z,19.63
2023-05-05T12:06:04.741Z,19.60
2023-05-05T12:08:41.325Z,19.51
2023-05-05T12:11:10.053Z,19.87
2023-05-05T12:13:37.374Z,19.76
2023-05-05T12:16:14.573Z,19.77
2023-05-05T12:18:42.039Z,19.82
2023-05-05T12:21:19.834Z,19.84
2023-05-05T12:23:47.267Z,19.83
2023-05-05T12:26:29.284Z,19.86
2023-05-05T12:29:00.408Z,19.49
2023-05-05T12:31:37.921Z,19.61
2023-05-05T12:34:06.897Z,19.85
2023-05-05T12:36:34.752Z,19.94
2023-05-05T12:39:02.059Z,19.95
2023-05-05T12:41:29.084Z,19.83
2023-05-05T12:43:57.300Z,19.62
2023-05-05T12:46:24.838Z,19.49
2023-05-05T12:49:06.606Z,19.69
2023-05-05T12:51:36.158Z,19.79
2023-05-05T12:54:07.541Z,19.71
2023-05-05T12:56:40.740Z,19.83
2023-05-05T12:59:08.492Z,20.07
2023-05-05T13:02:06.024Z,19.53
2023-05-05T13:04:33.259Z,19.88
2023-05-05T13:07:16.839Z,19.89
2023-05-05T13:09:44.088Z,19.92
2023-05-05T13:12:14.035Z,20.22
2023-05-05T13:14:41.828Z,20.34
2023-05-05T13:17:09.225Z,20.34
2023-05-05T13:19:41.932Z,19.77
2023-05-05T13:22:13.046Z,19.75
2023-05-05T13:27:46.829Z,20.22
2023-05-05T13:30:14.167Z,20.21
2023-05-05T13:32:41.626Z,20.43
2023-05-05T13:35:09.325Z,20.08
2023-05-05T13:37:36.526Z,20.06
2023-05-05T13:40:03.865Z,20.19
2023-05-05T13:42:31.043Z,20.30
2023-05-05T13:44:57.859Z,20.32
2023-05-05T13:47:25.021Z,20.45
2023-05-05T13:49:52.072Z,20.69
2023-05-05T13:52:19.047Z,20.44
2023-05-05T13:54:46.111Z,20.52
2023-05-05T13:57:13.504Z,20.47
2023-05-05T13:59:40.668Z,20.05
2023-05-05T14:02:07.779Z,20.21
2023-05-05T14:04:34.799Z,20.51
2023-05-05T14:07:02.179Z,20.51
2023-05-05T14:09:28.975Z,20.64
2023-05-05T14:11:55.902Z,20.70
2023-05-05T14:14:22.858Z,20.49
2023-05-05T14:16:50.494Z,20.32
2023-05-05T14:19:17.742Z,20.31
2023-05-05T14:21:44.562Z,20.14
2023-05-05T14:24:11.649Z,19.89
2023-05-05T14:26:38.500Z,19.87
2023-05-05T14:29:05.440Z,19.70
2023-05-05T14:35:48.559Z,19.68
2023-05-05T14:38:15.653Z,19.67
2023-05-05T14:40:42.830Z,19.65
2023-05-05T14:43:09.775Z,19.34
2023-05-05T14:45:36.790Z,19.40
2023-05-05T14:48:10.687Z,19.24
2023-05-05T14:50:38.741Z,19.47
2023-05-05T14:53:05.817Z,19.40
2023-05-05T14:55:33.255Z,19.12
2023-05-05T14:58:00.055Z,19.01
2023-05-05T15:00:29.778Z,19.09
2023-05-05T15:02:56.702Z,19.04
2023-05-05T15:05:23.723Z,18.81
2023-05-05T15:07:50.790Z,18.87
2023-05-05T15:10:19.119Z,18.94
2023-05-05T15:12:47.358Z,18.89
2023-05-05T15:15:14.898Z,18.79
2023-05-05T15:17:42.037Z,18.90
2023-05-05T15:20:09.681Z,18.85
2023-05-05T15:22:36.571Z,18.79
2023-05-05T15:25:03.578Z,18.66
2023-05-05T15:27:31.769Z,18.70
2023-05-05T15:29:58.886Z,18.61
2023-05-05T15:32:25.777Z,18.61
2023-05-05T15:34:52.840Z,18.65
2023-05-05T15:37:19.757Z,18.71
2023-05-05T15:39:46.664Z,18.81
2023-05-05T15:42:13.569Z,18.75
2023-05-05T15:44:42.083Z,18.73
2023-05-05T15:47:10.933Z,18.62
2023-05-05T15:49:37.974Z,18.67
2023-05-05T15:52:05.055Z,18.58
2023-05-05T15:54:33.760Z,18.57
2023-05-05T15:57:00.629Z,18.53
2023-05-05T15:59:27.544Z,18.44
2023-05-05T16:01:54.425Z,18.27
2023-05-05T16:04:21.474Z,18.08
2023-05-05T16:06:48.399Z,18.10
2023-05-05T16:09:15.393Z,18.06
2023-05-05T16:11:42.439Z,18.04
2023-05-05T16:14:09.303Z,18.00
2023-05-05T16:16:36.760Z,17.96
2023-05-05T16:19:14.239Z,18.11
2023-05-05T16:21:41.173Z,18.02
2023-05-05T16:24:08.184Z,17.85
2023-05-05T16:26:35.953Z,17.77
2023-05-05T16:29:02.893Z,17.62
2023-05-05T16:31:30.381Z,17.48
2023-05-05T16:33:57.454Z,17.40
2023-05-05T16:36:24.503Z,17.27
2023-05-05T16:38:51.425Z,17.15
2023-05-05T16:41:18.231Z,17.01
2023-05-05T16:43:44.980Z,16.98
2023-05-05T16:46:12.147Z,16.89
2023-05-05T16:48:39.070Z,16.78
2023-05-05T16:51:06.117Z,16.72
2023-05-05T16:53:33.258Z,16.55
2023-05-05T16:56:00.414Z,16.49
2023-05-05T16:58:27.544Z,16.38
2023-05-05T17:00:54.713Z,16.30
2023-05-05T17:03:22.648Z,16.18
2023-05-05T17:05:53.065Z,16.14
2023-05-05T17:08:19.988Z,16.02
2023-05-05T17:10:47.222Z,15.96
2023-05-05T17:13:15.194Z,15.89
2023-05-05T17:15:43.608Z,15.84
2023-05-05T17:18:10.857Z,15.74
2023-05-05T17:20:37.842Z,15.68
2023-05-05T17:23:05.077Z,15.56
2023-05-05T17:25:32.079Z,15.54
2023-05-05T17:27:59.048Z,15.42
2023-05-05T17:30:26.491Z,15.44
2023-05-05T17:32:53.773Z,15.33
2023-05-05T17:35:21.567Z,15.20
2023-05-05T17:37:48.424Z,15.20
2023-05-05T17:40:16.743Z,15.17
2023-05-05T17:42:43.869Z,15.04
2023-05-05T17:45:11.447Z,15.05
2023-05-05T17:47:59.229Z,14.97
2023-05-05T17:50:29.564Z,14.92
2023-05-05T17:53:47.693Z,14.85
2023-05-05T17:56:24.189Z,14.80
2023-05-05T17:58:51.391Z,14.72
2023-05-05T18:01:26.232Z,14.69
2023-05-05T18:03:53.320Z,14.55
2023-05-05T18:06:20.595Z,14.53
2023-05-05T18:08:47.654Z,14.51
2023-05-05T18:11:15.389Z,14.42
2023-05-05T18:13:47.038Z,14.32
2023-05-05T18:16:17.087Z,14.24
2023-05-05T18:18:43.989Z,14.19
2023-05-05T18:21:12.350Z,14.15
2023-05-05T18:23:40.411Z,14.10
2023-05-05T18:26:07.895Z,14.03
2023-05-05T18:28:36.108Z,14.03
2023-05-05T18:31:03.203Z,13.97
2023-05-05T18:33:30.002Z,13.95
2023-05-05T18:35:57.986Z,13.91
2023-05-05T18:38:24.900Z,13.82
2023-05-05T18:40:51.781Z,13.91
2023-05-05T18:43:19.093Z,13.88
2023-05-05T18:45:45.969Z,13.83
2023-05-05T18:48:12.799Z,13.86
2023-05-05T18:50:39.693Z,13.81
2023-05-05T18:53:06.609Z,13.81
2023-05-05T18:55:33.584Z,13.76
2023-05-05T18:58:00.557Z,13.67
2023-05-05T19:00:27.448Z,13.59
2023-05-05T19:02:54.478Z,13.63
2023-05-05T19:05:45.436Z,13.59
2023-05-05T19:08:12.484Z,13.55
2023-05-05T19:10:39.362Z,13.53
2023-05-05T19:13:06.481Z,13.43
2023-05-05T19:15:33.595Z,13.44
2023-05-05T19:18:01.150Z,13.38
2023-05-05T19:20:30.793Z,13.35
2023-05-05T19:23:03.657Z,13.30
2023-05-05T19:25:31.389Z,13.25
2023-05-05T19:27:58.428Z,13.23
2023-05-05T19:30:25.760Z,13.13
2023-05-05T19:32:52.680Z,13.11
2023-05-05T19:35:19.810Z,13.03
2023-05-05T19:37:46.656Z,13.04
2023-05-05T19:40:17.751Z,13.00
2023-05-05T19:42:44.572Z,12.92
2023-05-05T19:45:11.464Z,12.94
2023-05-05T19:47:38.358Z,12.88
2023-05-05T19:50:18.108Z,12.86
2023-05-05T19:52:47.957Z,12.79
2023-05-05T19:55:17.809Z,12.69
2023-05-05T19:57:44.826Z,12.75
2023-05-05T20:00:12.527Z,12.71
2023-05-05T20:02:39.594Z,12.69
2023-05-05T20:05:09.376Z,12.70
2023-05-05T20:07:36.181Z,12.64
2023-05-05T20:13:28.335Z,12.52
2023-05-05T20:15:55.435Z,12.53
2023-05-05T20:18:22.546Z,12.46
2023-05-05T20:20:49.417Z,12.48
2023-05-05T20:23:16.489Z,12.40
2023-05-05T20:25:43.417Z,12.33
2023-05-05T20:28:10.323Z,12.31
2023-05-05T20:30:37.242Z,12.31
2023-05-05T20:33:04.413Z,12.21
2023-05-05T20:35:31.461Z,12.19
2023-05-05T20:37:58.356Z,12.19
2023-05-05T20:40:25.553Z,12.13
2023-05-05T20:42:52.348Z,12.10
2023-05-05T20:45:19.334Z,11.99
2023-05-05T20:47:46.462Z,12.00
2023-05-05T20:50:13.683Z,11.94
2023-05-05T20:52:40.791Z,11.95
2023-05-05T20:55:08.052Z,11.87
2023-05-05T20:57:34.856Z,11.82
2023-05-05T21:00:02.058Z,11.79
2023-05-05T21:02:28.988Z,11.76
2023-05-05T21:05:02.340Z,11.66
2023-05-05T21:07:35.638Z,11.68
2023-05-05T21:10:03.665Z,11.64
2023-05-05T21:12:31.567Z,11.64
2023-05-05T21:14:59.554Z,11.63
2023-05-05T21:17:27.283Z,11.53
2023-05-05T21:19:54.963Z,11.60
2023-05-05T21:22:22.412Z,11.65
2023-05-05T21:24:49.603Z,11.56
2023-05-05T21:27:16.661Z,11.53
2023-05-05T21:29:43.578Z,11.54
2023-05-05T21:32:11.783Z,11.56
2023-05-05T21:34:39.693Z,11.53
2023-05-05T21:37:06.639Z,11.50
2023-05-05T21:39:33.707Z,11.49
2023-05-05T21:42:00.923Z,11.43
2023-05-05T21:44:28.432Z,11.42
2023-05-05T21:46:55.792Z,11.48
2023-05-05T21:49:22.937Z,11.46
2023-05-05T21:51:50.310Z,11.40
2023-05-05T21:54:17.316Z,11.38
2023-05-05T21:56:44.425Z,11.34
2023-05-05T21:59:11.389Z,11.37
2023-05-05T22:01:38.352Z,11.30
2023-05-05T22:04:05.399Z,11.42
2023-05-05T22:06:32.575Z,11.42
2023-05-05T22:08:59.426Z,11.42
2023-05-05T22:11:26.680Z,11.42
2023-05-05T22:13:53.790Z,11.39
2023-05-05T22:16:20.732Z,11.34
2023-05-05T22:18:47.699Z,11.29
2023-05-05T22:21:14.505Z,11.19
2023-05-05T22:23:44.314Z,11.15
2023-05-05T22:26:11.693Z,11.06
2023-05-05T22:28:38.698Z,11.06
2023-05-05T22:31:05.799Z,11.00
2023-05-05T22:33:32.990Z,10.92
2023-05-05T22:35:59.773Z,10.95
2023-05-05T22:38:26.906Z,10.92
2023-05-05T22:40:53.850Z,10.85
2023-05-05T22:43:20.851Z,10.85
2023-05-05T22:45:47.986Z,10.72
2023-05-05T22:48:15.069Z,10.72
2023-05-05T22:50:42.174Z,10.82
2023-05-05T22:53:09.099Z,10.81
2023-05-05T22:55:35.979Z,10.77
2023-05-05T22:58:02.920Z,10.73
2023-05-05T23:00:29.999Z,10.69
2023-05-05T23:02:56.953Z,10.65
2023-05-05T23:05:24.042Z,10.75
2023-05-05T23:07:51.263Z,10.76
2023-05-05T23:10:18.402Z,10.71
2023-05-05T23:12:45.270Z,10.73
2023-05-05T23:15:12.704Z,10.74
2023-05-05T23:17:39.860Z,10.76
2023-05-05T23:20:09.688Z,10.87
2023-05-05T23:22:36.903Z,10.95
2023-05-05T23:25:03.922Z,11.02
2023-05-05T23:27:31.449Z,10.99
2023-05-05T23:29:58.632Z,11.00
2023-05-05T23:32:25.526Z,11.00
2023-05-05T23:34:53.774Z,10.94
2023-05-05T23:37:20.582Z,10.97
2023-05-05T23:39:47.616Z,10.97
2023-05-05T23:42:14.428Z,10.92
2023-05-05T23:44:41.499Z,10.98
2023-05-05T23:47:08.353Z,11.02
2023-05-05T23:49:35.801Z,11.02
2023-05-05T23:52:03.477Z,11.03
2023-05-05T23:54:30.348Z,11.04
2023-05-05T23:56:57.355Z,11.03
2023-05-05T23:59:24.220Z,10.99
